Republic Airport Farmingdale US
ICAO: KFRG
IATA: FRG
Category: Medium
Scheduled Services: No

Elevation: 82 ft
TransAlt. 18000 ft.

Airport Communications:
NEW YORK APP:118.4
ATIS:126.65
CLNC DEL:128.25
CTAF:118.8
NEW YORK DEP:123.7
GND:121.6
:111.9
TWR:118.8
UNICOM:122.95

KFRG Zoom In..

Runways:

(A) RW 01 length 5516 ft width 150 ft
---- / hdg 13

(B) RW 14 length 6833 ft width 150 ft
ILS 111.90 / hdg 146

(C) RW 19 length 5516 ft width 150 ft
---- / hdg 193

(D) RW 32 length 6833 ft width 150 ft
---- / hdg 326

Location; KFRG
Day. 21 / Time. 14.53 Zulu
* Altimeter: 30.20
* Temperature: 19° c. 66.2°f.
* Wind from: 020° Speed 06 kn.
Dewpoint: 09° c.
Visibility: 10 Statute Miles.
Clouds: Clear (automated report).

KFRG 211453Z 02006KT 10SM CLR 19/09 A3020 RMK AO2 SLP227 T01940094 53008


Wind From 020°
Speed 06 kn.

 
 
jpsmedia.com for Web Design SOUNDCLOUD worldairports.se 2018   terms of use